メインページ
METAR-TAF:

METAR-TAF

空港 :

パゴパゴ国際空港

パゴパゴ, 合衆国領有小離島

緯度: 14-20S, 経度: 170-43W, 海抜: 3m

現時点の気象観測

当レポートは42分前の00:50(UTC)に作成
の風 8kt
気温 30°C
湿度 70%
気圧 1013 hPa
視程: 19.3km
高度2100ftの雲はほとんどない
高度10000ftの雲は散在している

METAR: NSTU 160050Z 08008KT 12SM FEW021 SCT100 30/24 A2990 RMK SLP125 T02950237

時間: 14:32 (01:32 UTC)

予報

当レポートは2時間10分前の23:22(UTC)に作成
予報は16日の 00時(UTC)から 16日の 24時(UTC)まで有効
東/南東の風 15kt
視程: 8.0km
高度1800ftの千切れ雲あり
高度3500ftの千切れ雲あり
高度6000ftの千切れ雲あり
にわか雨
16日の 0100時(UTC)から
東/南東の風 11kt
視程: 10km
高度1800ftの雲は散在している
高度4000ftの雲は散在している
高度15000ftの雲は散在している

TAF: NSTU 152322Z 1600/1624 11015KT 5SM SHRA BKN018 BKN035 BKN060 FM160100 11011KT P6SM SCT018 SCT040 SCT150

4,000以上の空港の気象観測と天気予報(METAR報とTAF報)

利用可能な観測所は地図上に黄色い丸と赤い丸で示す。

丸の上にカーソルを重ねると観測所名を参照できる。

次にクリックすると気象観測と天気予報を参照できる。

マップの切り替え:黒色「×」印の緑ボタンをクリックして拡大、「-」印の緑ボタンをクリックして縮小、緑色の三角印をクリックして隣りの地図に切り替え


METAR-TAF: